sensor_id;sensor_type;location;lat;lon;timestamp;P1;durP1;ratioP1;P2;durP2;ratioP2
19537;SDS011;9914;51.008;4.300;2023-06-22T00:00:56;286.87;;;276.23;;
19537;SDS011;9914;51.008;4.300;2023-06-22T00:03:22;213.83;;;205.83;;
19537;SDS011;9914;51.008;4.300;2023-06-22T00:05:49;196.10;;;188.60;;
19537;SDS011;9914;51.008;4.300;2023-06-22T00:08:15;172.07;;;165.50;;
19537;SDS011;9914;51.008;4.300;2023-06-22T00:10:42;180.50;;;173.20;;
19537;SDS011;9914;51.008;4.300;2023-06-22T00:13:08;223.90;;;214.63;;
19537;SDS011;9914;51.008;4.300;2023-06-22T00:15:35;209.57;;;201.07;;
19537;SDS011;9914;51.008;4.300;2023-06-22T00:18:02;253.43;;;243.13;;
19537;SDS011;9914;51.008;4.300;2023-06-22T00:20:28;288.43;;;276.33;;
19537;SDS011;9914;51.008;4.300;2023-06-22T00:22:55;315.77;;;302.30;;
19537;SDS011;9914;51.008;4.300;2023-06-22T00:25:21;321.67;;;308.13;;
19537;SDS011;9914;51.008;4.300;2023-06-22T00:27:47;324.73;;;310.47;;
19537;SDS011;9914;51.008;4.300;2023-06-22T00:30:14;333.43;;;319.30;;
19537;SDS011;9914;51.008;4.300;2023-06-22T00:32:40;360.30;;;344.67;;
19537;SDS011;9914;51.008;4.300;2023-06-22T00:35:06;429.57;;;410.73;;
19537;SDS011;9914;51.008;4.300;2023-06-22T00:37:32;460.30;;;440.43;;
19537;SDS011;9914;51.008;4.300;2023-06-22T00:39:58;489.10;;;468.13;;
19537;SDS011;9914;51.008;4.300;2023-06-22T00:42:23;477.00;;;456.30;;
19537;SDS011;9914;51.008;4.300;2023-06-22T00:44:49;492.50;;;471.00;;
19537;SDS011;9914;51.008;4.300;2023-06-22T00:47:15;485.17;;;464.47;;
19537;SDS011;9914;51.008;4.300;2023-06-22T00:49:42;481.53;;;461.27;;
19537;SDS011;9914;51.008;4.300;2023-06-22T00:52:08;478.07;;;457.87;;
19537;SDS011;9914;51.008;4.300;2023-06-22T00:54:39;524.53;;;501.27;;
19537;SDS011;9914;51.008;4.300;2023-06-22T00:57:10;479.13;;;458.93;;
19537;SDS011;9914;51.008;4.300;2023-06-22T00:59:40;471.00;;;451.50;;
19537;SDS011;9914;51.008;4.300;2023-06-22T01:02:10;494.37;;;472.73;;
19537;SDS011;9914;51.008;4.300;2023-06-22T01:04:37;469.60;;;449.77;;
19537;SDS011;9914;51.008;4.300;2023-06-22T01:12:44;463.80;;;443.57;;
19537;SDS011;9914;51.008;4.300;2023-06-22T01:15:17;432.97;;;414.67;;
19537;SDS011;9914;51.008;4.300;2023-06-22T01:17:48;452.87;;;433.67;;
19537;SDS011;9914;51.008;4.300;2023-06-22T01:20:16;434.67;;;416.00;;
19537;SDS011;9914;51.008;4.300;2023-06-22T01:22:59;449.07;;;429.93;;
19537;SDS011;9914;51.008;4.300;2023-06-22T01:25:32;428.97;;;410.63;;
19537;SDS011;9914;51.008;4.300;2023-06-22T01:30:49;475.13;;;454.53;;
19537;SDS011;9914;51.008;4.300;2023-06-22T01:33:34;491.00;;;469.30;;
19537;SDS011;9914;51.008;4.300;2023-06-22T01:36:02;461.47;;;441.03;;
19537;SDS011;9914;51.008;4.300;2023-06-22T01:38:29;465.40;;;445.17;;
19537;SDS011;9914;51.008;4.300;2023-06-22T01:40:56;467.23;;;446.30;;
19537;SDS011;9914;51.008;4.300;2023-06-22T01:43:23;523.43;;;500.60;;
19537;SDS011;9914;51.008;4.300;2023-06-22T01:45:51;531.83;;;507.90;;
19537;SDS011;9914;51.008;4.300;2023-06-22T01:48:17;570.87;;;543.57;;
19537;SDS011;9914;51.008;4.300;2023-06-22T01:50:44;520.67;;;497.57;;
19537;SDS011;9914;51.008;4.300;2023-06-22T01:53:10;503.47;;;481.70;;
19537;SDS011;9914;51.008;4.300;2023-06-22T01:55:36;510.60;;;487.80;;
19537;SDS011;9914;51.008;4.300;2023-06-22T01:58:01;508.53;;;485.83;;
19537;SDS011;9914;51.008;4.300;2023-06-22T02:00:28;511.23;;;488.77;;
19537;SDS011;9914;51.008;4.300;2023-06-22T02:03:01;517.80;;;495.07;;
19537;SDS011;9914;51.008;4.300;2023-06-22T02:05:34;516.50;;;493.83;;
19537;SDS011;9914;51.008;4.300;2023-06-22T02:10:36;490.47;;;468.90;;
19537;SDS011;9914;51.008;4.300;2023-06-22T02:13:04;510.50;;;488.27;;
19537;SDS011;9914;51.008;4.300;2023-06-22T02:15:31;491.00;;;469.67;;
19537;SDS011;9914;51.008;4.300;2023-06-22T02:17:57;465.83;;;445.93;;
19537;SDS011;9914;51.008;4.300;2023-06-22T02:20:23;470.70;;;450.50;;
19537;SDS011;9914;51.008;4.300;2023-06-22T02:22:49;429.07;;;410.60;;
19537;SDS011;9914;51.008;4.300;2023-06-22T02:25:15;390.13;;;373.73;;
19537;SDS011;9914;51.008;4.300;2023-06-22T02:27:40;369.87;;;354.47;;
19537;SDS011;9914;51.008;4.300;2023-06-22T02:30:09;371.90;;;356.00;;
19537;SDS011;9914;51.008;4.300;2023-06-22T02:32:35;374.13;;;358.17;;
19537;SDS011;9914;51.008;4.300;2023-06-22T02:35:01;359.57;;;344.57;;
19537;SDS011;9914;51.008;4.300;2023-06-22T02:37:31;380.73;;;364.17;;
19537;SDS011;9914;51.008;4.300;2023-06-22T02:39:57;359.13;;;343.90;;
19537;SDS011;9914;51.008;4.300;2023-06-22T02:42:23;387.50;;;371.27;;
19537;SDS011;9914;51.008;4.300;2023-06-22T02:44:48;330.63;;;316.77;;
19537;SDS011;9914;51.008;4.300;2023-06-22T02:47:15;336.30;;;322.53;;
19537;SDS011;9914;51.008;4.300;2023-06-22T02:49:41;323.07;;;309.20;;
19537;SDS011;9914;51.008;4.300;2023-06-22T02:52:07;332.40;;;318.27;;
19537;SDS011;9914;51.008;4.300;2023-06-22T02:54:32;327.17;;;313.17;;
19537;SDS011;9914;51.008;4.300;2023-06-22T02:56:58;319.03;;;305.80;;
19537;SDS011;9914;51.008;4.300;2023-06-22T02:59:27;314.20;;;300.93;;
19537;SDS011;9914;51.008;4.300;2023-06-22T03:01:53;321.83;;;308.33;;
19537;SDS011;9914;51.008;4.300;2023-06-22T03:04:19;294.03;;;281.60;;
19537;SDS011;9914;51.008;4.300;2023-06-22T03:06:45;319.37;;;305.73;;
19537;SDS011;9914;51.008;4.300;2023-06-22T03:09:15;316.57;;;303.47;;
19537;SDS011;9914;51.008;4.300;2023-06-22T03:11:42;333.17;;;319.10;;
19537;SDS011;9914;51.008;4.300;2023-06-22T03:14:07;319.33;;;305.83;;
19537;SDS011;9914;51.008;4.300;2023-06-22T03:16:33;308.10;;;294.77;;
19537;SDS011;9914;51.008;4.300;2023-06-22T03:18:59;311.70;;;297.97;;
19537;SDS011;9914;51.008;4.300;2023-06-22T03:21:27;313.60;;;300.33;;
19537;SDS011;9914;51.008;4.300;2023-06-22T03:23:53;339.77;;;324.63;;
19537;SDS011;9914;51.008;4.300;2023-06-22T03:26:19;331.77;;;317.43;;
19537;SDS011;9914;51.008;4.300;2023-06-22T03:28:45;306.97;;;293.83;;
19537;SDS011;9914;51.008;4.300;2023-06-22T03:31:11;293.03;;;280.40;;
19537;SDS011;9914;51.008;4.300;2023-06-22T03:33:36;298.07;;;285.33;;
19537;SDS011;9914;51.008;4.300;2023-06-22T03:36:02;303.73;;;290.80;;
19537;SDS011;9914;51.008;4.300;2023-06-22T03:38:28;299.83;;;286.57;;
19537;SDS011;9914;51.008;4.300;2023-06-22T03:40:54;309.13;;;296.17;;
19537;SDS011;9914;51.008;4.300;2023-06-22T03:43:19;304.63;;;291.27;;
19537;SDS011;9914;51.008;4.300;2023-06-22T03:45:45;360.27;;;344.70;;
19537;SDS011;9914;51.008;4.300;2023-06-22T03:48:11;358.77;;;343.43;;
19537;SDS011;9914;51.008;4.300;2023-06-22T03:50:37;306.17;;;292.83;;
19537;SDS011;9914;51.008;4.300;2023-06-22T03:53:02;307.80;;;294.57;;
19537;SDS011;9914;51.008;4.300;2023-06-22T03:55:28;345.63;;;330.83;;
19537;SDS011;9914;51.008;4.300;2023-06-22T03:57:54;349.17;;;334.00;;
19537;SDS011;9914;51.008;4.300;2023-06-22T04:00:22;403.27;;;386.00;;
19537;SDS011;9914;51.008;4.300;2023-06-22T04:02:50;507.03;;;484.00;;
19537;SDS011;9914;51.008;4.300;2023-06-22T04:05:16;479.97;;;459.10;;
19537;SDS011;9914;51.008;4.300;2023-06-22T04:07:44;511.70;;;489.27;;
19537;SDS011;9914;51.008;4.300;2023-06-22T04:10:10;518.17;;;495.47;;
19537;SDS011;9914;51.008;4.300;2023-06-22T04:12:35;546.63;;;522.27;;
19537;SDS011;9914;51.008;4.300;2023-06-22T04:15:01;542.33;;;518.00;;
19537;SDS011;9914;51.008;4.300;2023-06-22T04:17:27;512.07;;;489.40;;
19537;SDS011;9914;51.008;4.300;2023-06-22T04:19:52;570.47;;;543.77;;
19537;SDS011;9914;51.008;4.300;2023-06-22T04:22:18;506.00;;;483.63;;
19537;SDS011;9914;51.008;4.300;2023-06-22T04:24:44;601.67;;;573.60;;
19537;SDS011;9914;51.008;4.300;2023-06-22T04:27:09;535.10;;;511.27;;
19537;SDS011;9914;51.008;4.300;2023-06-22T04:29:35;536.30;;;512.13;;
19537;SDS011;9914;51.008;4.300;2023-06-22T04:32:01;525.53;;;500.30;;
19537;SDS011;9914;51.008;4.300;2023-06-22T04:34:30;463.47;;;443.17;;
19537;SDS011;9914;51.008;4.300;2023-06-22T04:36:56;402.80;;;384.80;;
19537;SDS011;9914;51.008;4.300;2023-06-22T04:39:22;372.27;;;355.57;;
19537;SDS011;9914;51.008;4.300;2023-06-22T04:41:49;328.80;;;313.73;;
19537;SDS011;9914;51.008;4.300;2023-06-22T04:44:19;225.67;;;216.43;;
19537;SDS011;9914;51.008;4.300;2023-06-22T04:46:50;141.73;;;135.33;;
19537;SDS011;9914;51.008;4.300;2023-06-22T04:49:24;84.07;;;80.37;;
19537;SDS011;9914;51.008;4.300;2023-06-22T04:52:12;64.63;;;61.33;;
19537;SDS011;9914;51.008;4.300;2023-06-22T04:54:39;65.20;;;61.97;;
19537;SDS011;9914;51.008;4.300;2023-06-22T04:57:13;69.07;;;65.83;;
19537;SDS011;9914;51.008;4.300;2023-06-22T04:59:38;65.80;;;62.83;;
19537;SDS011;9914;51.008;4.300;2023-06-22T05:02:07;118.10;;;113.17;;
19537;SDS011;9914;51.008;4.300;2023-06-22T05:04:33;81.97;;;78.50;;
19537;SDS011;9914;51.008;4.300;2023-06-22T05:07:00;87.77;;;83.70;;
19537;SDS011;9914;51.008;4.300;2023-06-22T05:09:27;109.97;;;105.07;;
19537;SDS011;9914;51.008;4.300;2023-06-22T05:11:53;127.13;;;122.13;;
19537;SDS011;9914;51.008;4.300;2023-06-22T05:14:19;106.57;;;102.20;;
19537;SDS011;9914;51.008;4.300;2023-06-22T05:16:45;94.67;;;90.63;;
19537;SDS011;9914;51.008;4.300;2023-06-22T05:19:11;97.40;;;93.10;;
19537;SDS011;9914;51.008;4.300;2023-06-22T05:21:37;109.67;;;104.90;;
19537;SDS011;9914;51.008;4.300;2023-06-22T05:24:03;143.17;;;137.23;;
19537;SDS011;9914;51.008;4.300;2023-06-22T05:26:29;181.80;;;174.50;;
19537;SDS011;9914;51.008;4.300;2023-06-22T05:28:56;237.80;;;228.80;;
19537;SDS011;9914;51.008;4.300;2023-06-22T05:31:22;456.57;;;435.50;;
19537;SDS011;9914;51.008;4.300;2023-06-22T05:33:49;406.93;;;389.17;;
19537;SDS011;9914;51.008;4.300;2023-06-22T05:36:16;357.03;;;343.03;;
19537;SDS011;9914;51.008;4.300;2023-06-22T05:38:43;494.53;;;471.13;;
19537;SDS011;9914;51.008;4.300;2023-06-22T05:41:09;342.10;;;328.87;;
19537;SDS011;9914;51.008;4.300;2023-06-22T05:43:36;386.30;;;370.20;;
19537;SDS011;9914;51.008;4.300;2023-06-22T05:46:01;353.20;;;339.47;;
19537;SDS011;9914;51.008;4.300;2023-06-22T05:48:27;360.90;;;346.50;;
19537;SDS011;9914;51.008;4.300;2023-06-22T05:50:53;340.30;;;327.27;;
19537;SDS011;9914;51.008;4.300;2023-06-22T05:53:19;257.63;;;247.50;;
19537;SDS011;9914;51.008;4.300;2023-06-22T05:55:45;136.30;;;130.50;;
19537;SDS011;9914;51.008;4.300;2023-06-22T05:58:11;349.93;;;330.30;;
19537;SDS011;9914;51.008;4.300;2023-06-22T06:00:38;126.60;;;121.23;;
19537;SDS011;9914;51.008;4.300;2023-06-22T06:03:05;238.90;;;227.87;;
19537;SDS011;9914;51.008;4.300;2023-06-22T06:05:32;247.73;;;237.87;;
19537;SDS011;9914;51.008;4.300;2023-06-22T06:07:59;234.93;;;225.30;;
19537;SDS011;9914;51.008;4.300;2023-06-22T06:10:26;189.97;;;181.97;;
19537;SDS011;9914;51.008;4.300;2023-06-22T06:12:54;189.57;;;181.37;;
19537;SDS011;9914;51.008;4.300;2023-06-22T06:15:20;459.63;;;437.07;;
19537;SDS011;9914;51.008;4.300;2023-06-22T06:17:46;391.03;;;374.47;;
19537;SDS011;9914;51.008;4.300;2023-06-22T06:20:12;352.70;;;337.40;;
19537;SDS011;9914;51.008;4.300;2023-06-22T06:22:38;345.00;;;331.37;;
19537;SDS011;9914;51.008;4.300;2023-06-22T06:25:04;521.70;;;495.40;;
19537;SDS011;9914;51.008;4.300;2023-06-22T06:27:31;451.23;;;429.17;;
19537;SDS011;9914;51.008;4.300;2023-06-22T06:29:57;388.97;;;373.17;;
19537;SDS011;9914;51.008;4.300;2023-06-22T06:32:22;485.63;;;460.10;;
19537;SDS011;9914;51.008;4.300;2023-06-22T06:34:49;380.77;;;365.83;;
19537;SDS011;9914;51.008;4.300;2023-06-22T06:37:14;355.87;;;342.03;;
19537;SDS011;9914;51.008;4.300;2023-06-22T06:39:40;382.47;;;367.47;;
19537;SDS011;9914;51.008;4.300;2023-06-22T06:42:06;505.87;;;478.83;;
19537;SDS011;9914;51.008;4.300;2023-06-22T06:44:31;366.50;;;351.73;;
19537;SDS011;9914;51.008;4.300;2023-06-22T06:46:57;365.07;;;350.27;;
19537;SDS011;9914;51.008;4.300;2023-06-22T06:49:23;363.83;;;348.50;;
19537;SDS011;9914;51.008;4.300;2023-06-22T06:51:48;301.73;;;289.17;;
19537;SDS011;9914;51.008;4.300;2023-06-22T06:54:16;341.40;;;326.17;;
19537;SDS011;9914;51.008;4.300;2023-06-22T06:56:41;141.47;;;135.13;;
19537;SDS011;9914;51.008;4.300;2023-06-22T06:59:12;251.87;;;239.87;;
19537;SDS011;9914;51.008;4.300;2023-06-22T07:01:39;196.83;;;188.60;;
19537;SDS011;9914;51.008;4.300;2023-06-22T07:04:04;266.03;;;255.03;;
19537;SDS011;9914;51.008;4.300;2023-06-22T07:06:30;395.10;;;374.83;;
19537;SDS011;9914;51.008;4.300;2023-06-22T07:08:57;196.47;;;188.43;;
19537;SDS011;9914;51.008;4.300;2023-06-22T07:11:22;239.57;;;228.77;;
19537;SDS011;9914;51.008;4.300;2023-06-22T07:13:48;305.00;;;290.80;;
19537;SDS011;9914;51.008;4.300;2023-06-22T07:16:13;189.63;;;181.03;;
19537;SDS011;9914;51.008;4.300;2023-06-22T07:18:39;161.03;;;154.20;;
19537;SDS011;9914;51.008;4.300;2023-06-22T07:21:05;131.93;;;125.43;;
19537;SDS011;9914;51.008;4.300;2023-06-22T07:23:32;109.53;;;104.17;;
19537;SDS011;9914;51.008;4.300;2023-06-22T07:25:57;222.10;;;211.20;;
19537;SDS011;9914;51.008;4.300;2023-06-22T07:28:27;148.03;;;141.03;;
19537;SDS011;9914;51.008;4.300;2023-06-22T07:30:52;76.73;;;72.00;;
19537;SDS011;9914;51.008;4.300;2023-06-22T07:33:18;98.87;;;93.90;;
19537;SDS011;9914;51.008;4.300;2023-06-22T07:35:44;107.83;;;102.13;;
19537;SDS011;9914;51.008;4.300;2023-06-22T07:38:12;96.40;;;91.90;;
19537;SDS011;9914;51.008;4.300;2023-06-22T07:40:39;121.87;;;116.20;;
19537;SDS011;9914;51.008;4.300;2023-06-22T07:43:06;116.83;;;111.03;;
19537;SDS011;9914;51.008;4.300;2023-06-22T07:45:32;203.60;;;195.10;;
19537;SDS011;9914;51.008;4.300;2023-06-22T07:47:59;122.03;;;116.30;;
19537;SDS011;9914;51.008;4.300;2023-06-22T07:50:26;145.97;;;139.43;;
19537;SDS011;9914;51.008;4.300;2023-06-22T07:52:51;99.23;;;94.23;;
19537;SDS011;9914;51.008;4.300;2023-06-22T07:55:18;170.97;;;163.40;;
19537;SDS011;9914;51.008;4.300;2023-06-22T07:57:43;170.70;;;163.03;;
19537;SDS011;9914;51.008;4.300;2023-06-22T08:00:09;121.50;;;115.87;;
19537;SDS011;9914;51.008;4.300;2023-06-22T08:02:40;120.97;;;115.37;;
19537;SDS011;9914;51.008;4.300;2023-06-22T08:05:06;172.60;;;165.30;;
19537;SDS011;9914;51.008;4.300;2023-06-22T08:07:34;237.40;;;226.57;;
19537;SDS011;9914;51.008;4.300;2023-06-22T08:10:04;120.07;;;114.43;;
19537;SDS011;9914;51.008;4.300;2023-06-22T08:12:30;126.60;;;120.93;;
19537;SDS011;9914;51.008;4.300;2023-06-22T08:14:56;129.90;;;123.87;;
19537;SDS011;9914;51.008;4.300;2023-06-22T08:17:22;193.50;;;184.53;;
19537;SDS011;9914;51.008;4.300;2023-06-22T08:19:48;150.33;;;143.43;;
19537;SDS011;9914;51.008;4.300;2023-06-22T08:22:15;118.83;;;113.23;;
19537;SDS011;9914;51.008;4.300;2023-06-22T08:24:41;108.10;;;103.37;;
19537;SDS011;9914;51.008;4.300;2023-06-22T08:27:07;98.33;;;93.73;;
19537;SDS011;9914;51.008;4.300;2023-06-22T08:29:34;98.53;;;94.03;;
19537;SDS011;9914;51.008;4.300;2023-06-22T08:32:00;101.80;;;97.10;;
19537;SDS011;9914;51.008;4.300;2023-06-22T08:34:26;103.83;;;98.90;;
19537;SDS011;9914;51.008;4.300;2023-06-22T08:36:53;140.90;;;134.60;;
19537;SDS011;9914;51.008;4.300;2023-06-22T08:39:19;143.17;;;136.43;;
19537;SDS011;9914;51.008;4.300;2023-06-22T08:41:45;121.27;;;115.73;;
19537;SDS011;9914;51.008;4.300;2023-06-22T08:44:11;119.40;;;114.23;;
19537;SDS011;9914;51.008;4.300;2023-06-22T08:46:37;111.80;;;106.67;;
19537;SDS011;9914;51.008;4.300;2023-06-22T08:49:05;193.23;;;184.13;;
19537;SDS011;9914;51.008;4.300;2023-06-22T08:51:31;110.77;;;105.83;;
19537;SDS011;9914;51.008;4.300;2023-06-22T08:53:57;117.47;;;112.33;;
19537;SDS011;9914;51.008;4.300;2023-06-22T08:56:22;198.93;;;189.33;;
19537;SDS011;9914;51.008;4.300;2023-06-22T08:58:48;130.33;;;124.53;;
19537;SDS011;9914;51.008;4.300;2023-06-22T09:01:13;111.53;;;106.43;;
19537;SDS011;9914;51.008;4.300;2023-06-22T09:03:40;188.07;;;179.67;;
19537;SDS011;9914;51.008;4.300;2023-06-22T09:06:06;245.50;;;234.03;;
19537;SDS011;9914;51.008;4.300;2023-06-22T09:08:34;141.03;;;134.93;;
19537;SDS011;9914;51.008;4.300;2023-06-22T09:11:00;230.13;;;220.43;;
19537;SDS011;9914;51.008;4.300;2023-06-22T09:13:26;163.27;;;156.33;;
19537;SDS011;9914;51.008;4.300;2023-06-22T09:15:53;121.77;;;116.67;;
19537;SDS011;9914;51.008;4.300;2023-06-22T09:18:18;126.87;;;121.43;;
19537;SDS011;9914;51.008;4.300;2023-06-22T09:20:44;192.93;;;184.93;;
19537;SDS011;9914;51.008;4.300;2023-06-22T09:23:10;134.40;;;128.70;;
19537;SDS011;9914;51.008;4.300;2023-06-22T09:25:36;145.77;;;139.70;;
19537;SDS011;9914;51.008;4.300;2023-06-22T09:28:01;266.57;;;254.37;;
19537;SDS011;9914;51.008;4.300;2023-06-22T09:30:27;133.13;;;127.43;;
19537;SDS011;9914;51.008;4.300;2023-06-22T09:32:53;123.10;;;117.87;;
19537;SDS011;9914;51.008;4.300;2023-06-22T09:35:19;130.30;;;124.93;;
19537;SDS011;9914;51.008;4.300;2023-06-22T09:37:45;148.33;;;141.97;;
19537;SDS011;9914;51.008;4.300;2023-06-22T09:40:10;130.80;;;125.10;;
19537;SDS011;9914;51.008;4.300;2023-06-22T09:42:38;119.80;;;114.53;;
19537;SDS011;9914;51.008;4.300;2023-06-22T09:45:04;123.20;;;118.17;;
19537;SDS011;9914;51.008;4.300;2023-06-22T09:47:30;170.27;;;163.17;;
19537;SDS011;9914;51.008;4.300;2023-06-22T09:49:56;140.50;;;134.57;;
19537;SDS011;9914;51.008;4.300;2023-06-22T09:52:25;131.93;;;126.60;;
19537;SDS011;9914;51.008;4.300;2023-06-22T09:54:50;168.90;;;161.67;;
19537;SDS011;9914;51.008;4.300;2023-06-22T09:57:16;201.40;;;192.53;;
19537;SDS011;9914;51.008;4.300;2023-06-22T09:59:42;751.60;;;704.20;;
19537;SDS011;9914;51.008;4.300;2023-06-22T10:02:08;490.37;;;468.27;;
19537;SDS011;9914;51.008;4.300;2023-06-22T10:04:34;334.37;;;319.50;;
19537;SDS011;9914;51.008;4.300;2023-06-22T10:07:00;401.97;;;384.60;;
19537;SDS011;9914;51.008;4.300;2023-06-22T10:09:26;421.83;;;403.63;;
19537;SDS011;9914;51.008;4.300;2023-06-22T10:11:51;427.50;;;408.77;;
19537;SDS011;9914;51.008;4.300;2023-06-22T10:14:17;327.00;;;312.03;;
19537;SDS011;9914;51.008;4.300;2023-06-22T10:16:43;259.77;;;248.37;;
19537;SDS011;9914;51.008;4.300;2023-06-22T10:19:09;305.13;;;290.80;;
19537;SDS011;9914;51.008;4.300;2023-06-22T10:21:35;457.67;;;432.87;;
19537;SDS011;9914;51.008;4.300;2023-06-22T10:24:01;440.77;;;418.87;;
19537;SDS011;9914;51.008;4.300;2023-06-22T10:26:33;618.30;;;584.70;;
19537;SDS011;9914;51.008;4.300;2023-06-22T10:28:59;414.23;;;395.10;;
19537;SDS011;9914;51.008;4.300;2023-06-22T10:31:25;308.20;;;292.77;;
19537;SDS011;9914;51.008;4.300;2023-06-22T10:33:50;281.77;;;268.00;;
19537;SDS011;9914;51.008;4.300;2023-06-22T10:36:16;475.60;;;449.10;;
19537;SDS011;9914;51.008;4.300;2023-06-22T10:38:42;299.47;;;285.77;;
19537;SDS011;9914;51.008;4.300;2023-06-22T10:41:07;244.50;;;233.20;;
19537;SDS011;9914;51.008;4.300;2023-06-22T10:43:33;423.40;;;403.73;;
19537;SDS011;9914;51.008;4.300;2023-06-22T10:45:58;540.30;;;514.80;;
19537;SDS011;9914;51.008;4.300;2023-06-22T10:48:24;448.77;;;428.50;;
19537;SDS011;9914;51.008;4.300;2023-06-22T10:50:50;413.93;;;395.77;;
19537;SDS011;9914;51.008;4.300;2023-06-22T10:53:15;430.43;;;411.43;;
19537;SDS011;9914;51.008;4.300;2023-06-22T10:55:41;480.60;;;458.70;;
19537;SDS011;9914;51.008;4.300;2023-06-22T10:58:06;492.47;;;469.33;;
19537;SDS011;9914;51.008;4.300;2023-06-22T11:00:32;521.00;;;497.23;;
19537;SDS011;9914;51.008;4.300;2023-06-22T11:02:57;490.90;;;469.47;;
19537;SDS011;9914;51.008;4.300;2023-06-22T11:05:23;459.47;;;440.07;;
19537;SDS011;9914;51.008;4.300;2023-06-22T11:07:49;515.77;;;493.20;;
19537;SDS011;9914;51.008;4.300;2023-06-22T11:10:15;570.80;;;544.87;;
19537;SDS011;9914;51.008;4.300;2023-06-22T11:12:41;640.67;;;611.70;;
19537;SDS011;9914;51.008;4.300;2023-06-22T11:15:07;685.43;;;651.50;;
19537;SDS011;9914;51.008;4.300;2023-06-22T11:17:34;663.70;;;631.70;;
19537;SDS011;9914;51.008;4.300;2023-06-22T11:19:59;667.50;;;635.87;;
19537;SDS011;9914;51.008;4.300;2023-06-22T11:22:25;751.03;;;709.27;;
19537;SDS011;9914;51.008;4.300;2023-06-22T11:24:51;713.70;;;675.97;;
19537;SDS011;9914;51.008;4.300;2023-06-22T11:27:17;734.17;;;695.20;;
19537;SDS011;9914;51.008;4.300;2023-06-22T11:29:42;667.83;;;635.87;;
19537;SDS011;9914;51.008;4.300;2023-06-22T11:32:08;672.20;;;640.53;;
19537;SDS011;9914;51.008;4.300;2023-06-22T11:34:34;669.37;;;637.00;;
19537;SDS011;9914;51.008;4.300;2023-06-22T11:36:59;672.77;;;640.17;;
19537;SDS011;9914;51.008;4.300;2023-06-22T11:39:25;727.47;;;688.83;;
19537;SDS011;9914;51.008;4.300;2023-06-22T11:41:51;703.70;;;665.40;;
19537;SDS011;9914;51.008;4.300;2023-06-22T11:44:16;622.27;;;593.20;;
19537;SDS011;9914;51.008;4.300;2023-06-22T11:46:42;646.23;;;614.53;;
19537;SDS011;9914;51.008;4.300;2023-06-22T11:49:08;729.83;;;692.60;;
19537;SDS011;9914;51.008;4.300;2023-06-22T11:51:33;657.63;;;624.57;;
19537;SDS011;9914;51.008;4.300;2023-06-22T11:53:59;648.17;;;616.97;;
19537;SDS011;9914;51.008;4.300;2023-06-22T11:56:25;630.00;;;599.37;;
19537;SDS011;9914;51.008;4.300;2023-06-22T11:58:50;614.73;;;584.50;;
19537;SDS011;9914;51.008;4.300;2023-06-22T12:01:16;534.83;;;510.40;;
19537;SDS011;9914;51.008;4.300;2023-06-22T12:03:42;487.30;;;465.90;;
19537;SDS011;9914;51.008;4.300;2023-06-22T12:06:09;515.53;;;492.97;;
19537;SDS011;9914;51.008;4.300;2023-06-22T12:08:34;573.73;;;546.10;;
19537;SDS011;9914;51.008;4.300;2023-06-22T12:11:00;456.77;;;436.77;;
19537;SDS011;9914;51.008;4.300;2023-06-22T12:13:26;503.17;;;481.13;;
19537;SDS011;9914;51.008;4.300;2023-06-22T12:15:51;434.23;;;416.10;;
19537;SDS011;9914;51.008;4.300;2023-06-22T12:18:19;537.90;;;512.43;;
19537;SDS011;9914;51.008;4.300;2023-06-22T12:20:49;543.30;;;518.83;;
19537;SDS011;9914;51.008;4.300;2023-06-22T12:23:15;421.57;;;403.47;;
19537;SDS011;9914;51.008;4.300;2023-06-22T12:25:40;418.87;;;401.67;;
19537;SDS011;9914;51.008;4.300;2023-06-22T12:28:06;471.23;;;450.43;;
19537;SDS011;9914;51.008;4.300;2023-06-22T12:30:34;407.70;;;390.33;;
19537;SDS011;9914;51.008;4.300;2023-06-22T12:33:00;559.67;;;533.10;;
19537;SDS011;9914;51.008;4.300;2023-06-22T12:35:25;419.87;;;401.77;;
19537;SDS011;9914;51.008;4.300;2023-06-22T12:37:51;383.70;;;367.40;;
19537;SDS011;9914;51.008;4.300;2023-06-22T12:40:17;479.80;;;457.70;;
19537;SDS011;9914;51.008;4.300;2023-06-22T12:42:44;489.63;;;468.00;;
19537;SDS011;9914;51.008;4.300;2023-06-22T12:45:10;419.83;;;402.23;;
19537;SDS011;9914;51.008;4.300;2023-06-22T12:47:36;562.83;;;536.17;;
19537;SDS011;9914;51.008;4.300;2023-06-22T12:50:01;436.77;;;418.67;;
19537;SDS011;9914;51.008;4.300;2023-06-22T12:52:29;428.00;;;410.53;;
19537;SDS011;9914;51.008;4.300;2023-06-22T12:54:55;553.27;;;525.07;;
19537;SDS011;9914;51.008;4.300;2023-06-22T12:57:21;477.17;;;457.43;;
19537;SDS011;9914;51.008;4.300;2023-06-22T12:59:47;434.00;;;416.17;;
19537;SDS011;9914;51.008;4.300;2023-06-22T13:02:12;495.73;;;473.43;;
19537;SDS011;9914;51.008;4.300;2023-06-22T13:04:38;622.67;;;590.27;;
19537;SDS011;9914;51.008;4.300;2023-06-22T13:07:04;501.30;;;480.03;;
19537;SDS011;9914;51.008;4.300;2023-06-22T13:09:29;492.93;;;472.23;;
19537;SDS011;9914;51.008;4.300;2023-06-22T13:11:56;560.83;;;535.63;;
19537;SDS011;9914;51.008;4.300;2023-06-22T13:14:21;547.77;;;524.03;;
19537;SDS011;9914;51.008;4.300;2023-06-22T13:16:47;567.50;;;542.50;;
19537;SDS011;9914;51.008;4.300;2023-06-22T13:19:12;694.17;;;657.80;;
19537;SDS011;9914;51.008;4.300;2023-06-22T13:21:38;542.53;;;519.30;;
19537;SDS011;9914;51.008;4.300;2023-06-22T13:24:05;660.50;;;628.13;;
19537;SDS011;9914;51.008;4.300;2023-06-22T13:26:31;694.20;;;657.47;;
19537;SDS011;9914;51.008;4.300;2023-06-22T13:28:57;707.13;;;667.90;;
19537;SDS011;9914;51.008;4.300;2023-06-22T13:31:23;613.10;;;585.00;;
19537;SDS011;9914;51.008;4.300;2023-06-22T13:33:48;559.90;;;536.57;;
19537;SDS011;9914;51.008;4.300;2023-06-22T13:36:17;554.37;;;530.77;;
19537;SDS011;9914;51.008;4.300;2023-06-22T13:38:43;600.23;;;573.83;;
19537;SDS011;9914;51.008;4.300;2023-06-22T13:41:08;569.17;;;543.70;;
19537;SDS011;9914;51.008;4.300;2023-06-22T13:43:34;574.23;;;549.17;;
19537;SDS011;9914;51.008;4.300;2023-06-22T13:45:59;693.33;;;657.10;;
19537;SDS011;9914;51.008;4.300;2023-06-22T13:48:25;594.03;;;567.53;;
19537;SDS011;9914;51.008;4.300;2023-06-22T13:50:51;591.10;;;565.70;;
19537;SDS011;9914;51.008;4.300;2023-06-22T13:53:17;628.30;;;599.60;;
19537;SDS011;9914;51.008;4.300;2023-06-22T13:55:43;607.90;;;580.77;;
19537;SDS011;9914;51.008;4.300;2023-06-22T13:58:08;635.57;;;607.07;;
19537;SDS011;9914;51.008;4.300;2023-06-22T14:00:34;748.57;;;706.47;;
19537;SDS011;9914;51.008;4.300;2023-06-22T14:02:59;727.63;;;688.43;;
19537;SDS011;9914;51.008;4.300;2023-06-22T14:05:25;693.80;;;658.07;;
19537;SDS011;9914;51.008;4.300;2023-06-22T14:07:51;673.23;;;640.33;;
19537;SDS011;9914;51.008;4.300;2023-06-22T14:10:17;665.63;;;633.63;;
19537;SDS011;9914;51.008;4.300;2023-06-22T14:12:43;628.27;;;600.13;;
19537;SDS011;9914;51.008;4.300;2023-06-22T14:15:09;607.80;;;580.17;;
19537;SDS011;9914;51.008;4.300;2023-06-22T14:17:35;606.00;;;579.27;;